Cleburne Municipal Airport


Codes: KCPT/
Name: Cleburne Municipal Airport
City: Cleburne
Country: United States
Elevation: 854 ft.

Photos at Cleburne Municipal Airport


   Photos courtesy of SpottingLog. You can add your own sightings and photos by signing up for a free trial today.



No photos found.

Weather at Cleburne Municipal Airport


Time (UTC)DescriptionTempratureWindCloud coverageVisibilityPressureHumidity
16-Jun-2024 00:00Few Clouds32°C11 mph, SE20%10000m1003hPa54%
16-Jun-2024 03:00Few Clouds30°C9 mph, SE23%10000m1005hPa58%
16-Jun-2024 06:00Few Clouds27°C11 mph, SE16%10000m1008hPa66%
16-Jun-2024 09:00Clear Sky23°C9 mph, S0%10000m1011hPa81%
16-Jun-2024 12:00Few Clouds22°C9 mph, S12%10000m1011hPa89%
16-Jun-2024 15:00Scattered Clouds27°C13 mph, S38%10000m1012hPa69%
16-Jun-2024 18:00Scattered Clouds30°C16 mph, S49%10000m1011hPa53%
16-Jun-2024 21:00Broken Clouds31°C16 mph, SE66%10000m1010hPa48%
17-Jun-2024 00:00Scattered Clouds30°C13 mph, SE42%10000m1009hPa58%
17-Jun-2024 03:00Clear Sky25°C9 mph, SE3%10000m1009hPa70%
17-Jun-2024 06:00Clear Sky25°C13 mph, SE2%10000m1010hPa71%
17-Jun-2024 09:00Clear Sky23°C11 mph, S0%10000m1010hPa89%
17-Jun-2024 12:00Clear Sky22°C13 mph, SE1%10000m1010hPa97%
17-Jun-2024 15:00Scattered Clouds27°C16 mph, S48%10000m1010hPa79%
17-Jun-2024 18:00Light Rain31°C13 mph, S62%10000m1009hPa59%
17-Jun-2024 21:00Overcast Clouds29°C13 mph, SE86%10000m1008hPa66%
18-Jun-2024 00:00Broken Clouds29°C16 mph, SE64%10000m1007hPa68%
18-Jun-2024 03:00Clear Sky26°C16 mph, SE0%10000m1009hPa77%
18-Jun-2024 06:00Clear Sky23°C18 mph, SE0%10000m1009hPa91%
18-Jun-2024 09:00Overcast Clouds24°C20 mph, SE85%10000m1008hPa86%
18-Jun-2024 12:00Light Rain23°C13 mph, SE92%10000m1009hPa91%
18-Jun-2024 15:00Light Rain24°C13 mph, SE100%10000m1011hPa92%
18-Jun-2024 18:00Light Rain26°C18 mph, SE99%10000m1011hPa79%
18-Jun-2024 21:00Light Rain28°C16 mph, SE83%10000m1009hPa70%
19-Jun-2024 00:00Light Rain27°C16 mph, SE68%10000m1009hPa76%
19-Jun-2024 03:00Light Rain23°C16 mph, SE23%10000m1012hPa84%
19-Jun-2024 06:00Scattered Clouds21°C13 mph, E41%10000m1013hPa89%
19-Jun-2024 09:00Overcast Clouds22°C13 mph, E97%10000m1012hPa85%
19-Jun-2024 12:00Overcast Clouds22°C18 mph, E99%10000m1013hPa88%
19-Jun-2024 15:00Light Rain22°C18 mph, E100%10000m1015hPa94%
19-Jun-2024 18:00Light Rain22°C18 mph, E100%10000m1015hPa94%
19-Jun-2024 21:00Light Rain22°C20 mph, E100%9709m1015hPa93%
20-Jun-2024 00:00Moderate Rain21°C20 mph, E100%10000m1016hPa95%
20-Jun-2024 03:00Moderate Rain21°C20 mph, E100%4542m1017hPa96%
20-Jun-2024 06:00Light Rain21°C18 mph, E100%10000m1018hPa96%
20-Jun-2024 09:00Light Rain21°C16 mph, E100%10000m1017hPa97%
20-Jun-2024 12:00Overcast Clouds21°C13 mph, E100%10000m1018hPa96%
20-Jun-2024 15:00Overcast Clouds21°C13 mph, NE100%10000m1020hPa94%
20-Jun-2024 18:00Overcast Clouds22°C13 mph, NE100%10000m1020hPa89%
20-Jun-2024 21:00Overcast Clouds21°C9 mph, NE100%10000m1020hPa93%